Data for 09/23/2017

Time Sea-Level Adjusted Pressure Absolute Pressure Temperature Relative Humidity Dew Point   
(mb) (inHg) (mb) (inHg) (C) (F) (%) (C) (F)
00:05 1019 30.09 848 25.04 1.5 34.7 88 -0.3 31.5
00:10 1019 30.09 848 25.04 1.4 34.5 90 -0.1 31.7
00:15 1019 30.09 848 25.04 1.3 34.4 90 -0.1 31.9
00:20 1019 30.09 848 25.04 1.3 34.4 88 -0.4 31.3
00:25 1019 30.09 848 25.04 1.4 34.6 86 -0.6 30.9
00:30 1019 30.09 848 25.04 1.5 34.7 86 -0.6 30.9
00:35 1019 30.09 848 25.04 1.5 34.7 87 -0.5 31.1
00:40 1018 30.06 848 25.04 1.4 34.6 87 -0.5 31
00:45 1018 30.06 848 25.04 1.5 34.6 85 -0.8 30.6
00:50 1019 30.09 848 25.04 1.6 34.8 86 -0.6 31
00:55 1019 30.09 848 25.04 1.5 34.7 87 -0.4 31.3
01:00 1019 30.09 848 25.04 1.3 34.4 89 -0.3 31.5
01:05 1019 30.09 848 25.04 1.3 34.3 89 -0.3 31.5
01:10 1019 30.09 848 25.04 1.2 34.1 90 -0.3 31.5
01:15 1019 30.09 848 25.04 1.1 34 90 -0.3 31.4
01:20 1019 30.09 848 25.04 1.1 34 91 -0.3 31.5
01:25 1019 30.09 848 25.04 1.1 34 91 -0.2 31.6
01:30 1019 30.09 848 25.04 1.3 34.3 90 -0.2 31.7
01:35 1019 30.09 848 25.04 1.2 34.1 91 -0.2 31.6
01:40 1019 30.09 848 25.04 1 33.8 91 -0.4 31.4
01:45 1019 30.09 848 25.04 1 33.9 91 -0.3 31.5
01:50 1019 30.09 848 25.04 1 33.8 91 -0.3 31.4
01:55 1019 30.09 848 25.04 0.9 33.6 92 -0.3 31.4
02:00 1019 30.09 848 25.04 0.9 33.6 92 -0.2 31.6
02:05 1019 30.09 848 25.04 1 33.9 92 -0.1 31.9
02:10 1019 30.09 848 25.04 1.1 34 92 -0 32
02:15 1019 30.09 848 25.04 1.1 34 92 -0.1 31.9
02:20 1019 30.09 848 25.04 1.1 33.9 92 -0.1 31.8
02:25 1019 30.09 848 25.04 1.1 33.9 92 -0.1 31.8
02:30 1019 30.09 848 25.04 1 33.9 92 -0.1 31.7
02:35 1019 30.09 848 25.04 1 33.8 92 -0.2 31.6
02:40 1019 30.09 848 25.04 0.9 33.7 92 -0.2 31.6
02:45 1019 30.09 848 25.04 1 33.8 92 -0.2 31.7
02:50 1019 30.09 848 25.04 0.9 33.7 92 -0.2 31.6
02:55 1019 30.09 848 25.04 1 33.7 92 -0.2 31.7
03:00 1019 30.09 848 25.04 1.1 33.9 92 -0.1 31.8
03:05 1019 30.09 848 25.04 1 33.9 92 -0.1 31.8
03:10 1019 30.09 848 25.04 1.1 34 92 -0 32
03:15 1019 30.09 848 25.04 1.2 34.1 92 0 32
03:20 1019 30.09 848 25.04 1.2 34.2 92 -0 32
03:25 1019 30.09 848 25.04 1 33.9 91 -0.2 31.6
03:30 1019 30.09 848 25.04 0.9 33.6 92 -0.3 31.5
03:35 1019 30.09 848 25.04 0.9 33.6 92 -0.3 31.5
03:40 1019 30.09 848 25.04 0.9 33.6 92 -0.3 31.5
03:45 1019 30.09 848 25.04 0.8 33.4 92 -0.3 31.5
03:50 1019 30.09 848 25.04 0.8 33.5 93 -0.2 31.6
03:55 1019 30.09 848 25.04 0.8 33.5 93 -0.2 31.6
04:00 1019 30.09 848 25.04 0.8 33.5 93 -0.2 31.6
04:05 1019 30.09 848 25.04 0.8 33.5 93 -0.2 31.6
04:10 1019 30.09 848 25.04 0.8 33.5 93 -0.2 31.7
04:15 1019 30.09 848 25.04 0.8 33.5 93 -0.2 31.6
04:20 1019 30.09 848 25.04 0.8 33.4 93 -0.2 31.6
04:25 1019 30.09 848 25.04 0.8 33.5 93 -0.2 31.6
04:30 1019 30.09 848 25.04 0.7 33.3 93 -0.2 31.6
04:35 1019 30.09 848 25.04 0.7 33.3 93 -0.2 31.6
04:40 1019 30.09 848 25.04 0.7 33.3 93 -0.2 31.6
04:45 1019 30.09 848 25.04 0.7 33.2 93 -0.3 31.5
04:50 1019 30.09 848 25.04 0.7 33.3 93 -0.2 31.6
04:55 1019 30.09 848 25.04 0.8 33.4 93 -0.2 31.7
05:00 1019 30.09 848 25.04 0.7 33.3 93 -0.2 31.6
05:05 1019 30.09 848 25.04 0.7 33.3 93 -0.3 31.5
05:10 1019 30.09 848 25.04 0.7 33.3 93 -0.3 31.5
05:15 1019 30.09 848 25.04 0.7 33.3 93 -0.3 31.4
05:20 1019 30.09 848 25.04 0.7 33.2 93 -0.4 31.3
05:25 1019 30.09 848 25.04 0.7 33.2 93 -0.4 31.3
05:30 1019 30.09 848 25.04 0.7 33.2 92 -0.4 31.3
05:35 1019 30.09 848 25.04 0.7 33.2 93 -0.4 31.3
05:40 1019 30.09 848 25.04 0.7 33.3 92 -0.4 31.2
05:45 1019 30.09 848 25.04 0.8 33.4 91 -0.5 31.1
05:50 1019 30.09 848 25.04 0.8 33.5 91 -0.5 31.1
05:55 1019 30.09 848 25.04 0.9 33.6 91 -0.5 31.1
06:00 1019 30.09 848 25.04 0.9 33.6 91 -0.5 31.2
06:05 1019 30.09 848 25.04 0.9 33.6 90 -0.5 31.1
06:10 1019 30.09 848 25.04 0.9 33.6 90 -0.5 31.1
06:15 1019 30.09 848 25.04 1 33.8 91 -0.3 31.4
06:20 1019 30.09 849 25.07 1.1 34 90 -0.3 31.5
06:25 1019 30.09 849 25.07 1.1 34 90 -0.3 31.5
06:30 1019 30.09 849 25.07 1.1 34 90 -0.3 31.5
06:35 1020 30.12 849 25.07 1.2 34.1 90 -0.2 31.6
06:40 1020 30.12 849 25.07 1.1 34 91 -0.2 31.6
06:45 1020 30.12 849 25.07 1.1 33.9 91 -0.2 31.7
06:50 1020 30.12 849 25.07 1.1 33.9 92 -0.1 31.9
06:55 1020 30.12 849 25.07 1.2 34.2 92 0.1 32.1
07:00 1020 30.12 849 25.07 1.4 34.5 92 0.2 32.4
07:05 1020 30.12 849 25.07 1.5 34.7 92 0.3 32.5
07:10 1020 30.12 849 25.07 1.4 34.5 91 0 32.1
07:15 1020 30.12 849 25.07 1.4 34.6 91 0.1 32.1
07:20 1020 30.12 849 25.07 1.6 34.8 90 0.1 32.2
07:25 1020 30.12 849 25.07 1.5 34.7 90 0.1 32.1
07:30 1020 30.12 849 25.07 1.6 34.9 90 0.2 32.3
07:35 1020 30.12 849 25.07 1.8 35.2 90 0.3 32.5
07:40 1020 30.12 849 25.07 1.8 35.3 89 0.2 32.3
07:45 1020 30.12 849 25.07 1.8 35.2 89 0.2 32.3
07:50 1020 30.12 849 25.07 1.7 35.1 89 0.1 32.2
07:55 1020 30.12 849 25.07 1.7 35.1 89 0.1 32.3
08:00 1020 30.12 849 25.07 1.9 35.4 90 0.3 32.6
08:05 1020 30.12 849 25.07 2.1 35.8 89 0.5 32.9
08:10 1020 30.12 849 25.07 2.2 36 88 0.4 32.8
08:15 1020 30.12 849 25.07 2.2 35.9 88 0.4 32.7
08:20 1020 30.12 849 25.07 2.2 36 87 0.3 32.5
08:25 1020 30.12 849 25.07 2.3 36.1 87 0.3 32.6
08:30 1020 30.12 849 25.07 2.3 36.2 87 0.4 32.7
08:35 1020 30.12 849 25.07 2.4 36.3 87 0.4 32.7
08:40 1020 30.12 849 25.07 2.5 36.4 86 0.4 32.6
08:45 1020 30.12 849 25.07 2.5 36.5 86 0.4 32.7
08:50 1020 30.12 849 25.07 2.6 36.7 86 0.4 32.8
08:55 1020 30.12 849 25.07 2.6 36.7 86 0.5 32.9
09:00 1020 30.12 849 25.07 2.5 36.6 86 0.5 32.8
09:05 1020 30.12 850 25.1 2.6 36.6 86 0.5 32.9
09:10 1020 30.12 850 25.1 2.5 36.6 87 0.5 33
09:15 1020 30.12 850 25.1 2.4 36.4 87 0.4 32.8
09:20 1020 30.12 850 25.1 2.3 36.1 88 0.5 32.8
09:25 1020 30.12 850 25.1 2.4 36.3 88 0.5 33
09:30 1020 30.12 850 25.1 2.5 36.5 86 0.4 32.7
09:35 1020 30.12 850 25.1 2.2 36 88 0.4 32.7
09:40 1020 30.12 850 25.1 2.3 36.2 88 0.6 33.1
09:45 1020 30.12 850 25.1 2.5 36.5 86 0.4 32.7
09:50 1020 30.12 850 25.1 2.5 36.5 87 0.5 33
09:55 1020 30.12 850 25.1 2.5 36.6 86 0.4 32.8
10:00 1020 30.12 850 25.1 2.7 36.9 85 0.4 32.7
10:05 1020 30.12 850 25.1 2.8 37.1 84 0.3 32.6
10:10 1020 30.12 850 25.1 2.6 36.7 85 0.3 32.6
10:15 1020 30.12 850 25.1 2.7 36.8 85 0.4 32.8
10:20 1020 30.12 850 25.1 2.9 37.2 84 0.5 32.9
10:25 1020 30.12 849 25.07 2.9 37.3 83 0.4 32.6
10:30 1020 30.12 849 25.07 2.9 37.3 83 0.3 32.5
10:35 1020 30.12 849 25.07 3 37.4 83 0.3 32.6
10:40 1020 30.12 849 25.07 3.2 37.8 81 0.3 32.5
10:45 1020 30.12 849 25.07 3.2 37.8 82 0.4 32.7
10:50 1020 30.12 849 25.07 3.4 38.1 81 0.5 33
10:55 1020 30.12 849 25.07 3.6 38.4 78 0 32
11:00 1020 30.12 849 25.07 3.5 38.2 79 0.2 32.3
11:05 1020 30.12 849 25.07 3.7 38.7 76 -0.1 31.9
11:10 1020 30.12 849 25.07 4.1 39.4 76 0.3 32.5
11:15 1020 30.12 849 25.07 4.3 39.7 76 0.3 32.6
11:20 1020 30.12 849 25.07 4.3 39.7 76 0.4 32.7
11:25 1020 30.12 849 25.07 4.6 40.2 74 0.4 32.7
11:30 1020 30.12 849 25.07 4.6 40.2 75 0.5 33
11:35 1020 30.12 849 25.07 4.7 40.4 72 0.1 32.1
11:40 1020 30.12 849 25.07 4.5 40 74 0.2 32.4
11:45 1020 30.12 849 25.07 4.5 40.1 71 -0.3 31.5
11:50 1020 30.12 849 25.07 4.3 39.8 73 -0 32
11:55 1020 30.12 849 25.07 4.5 40.2 73 0.1 32.2
12:00 1020 30.12 849 25.07 4.5 40.1 72 -0.1 31.8
12:05 1020 30.12 849 25.07 4.8 40.6 70 -0.2 31.6
12:10 1020 30.12 849 25.07 5.1 41.1 71 0.2 32.4
12:15 1020 30.12 849 25.07 4.9 40.8 70 -0.2 31.7
12:20 1020 30.12 849 25.07 4.5 40.1 72 -0.1 31.8
12:25 1020 30.12 849 25.07 4.6 40.3 71 -0.2 31.7
12:30 1020 30.12 849 25.07 5 41 69 -0.2 31.7
12:35 1020 30.12 849 25.07 4.8 40.7 71 -0 32
12:40 1020 30.12 849 25.07 5.2 41.3 68 -0.3 31.4
12:45 1020 30.12 849 25.07 5.3 41.6 68 -0.1 31.9
12:50 1020 30.12 849 25.07 4.9 40.9 68 -0.4 31.3
12:55 1020 30.12 849 25.07 4.9 40.8 69 -0.4 31.3
13:00 1020 30.12 849 25.07 4.8 40.7 68 -0.5 31.1
13:05 1020 30.12 849 25.07 4.9 40.7 68 -0.5 31.1
13:10 1020 30.12 849 25.07 4.9 40.9 68 -0.4 31.3
13:15 1020 30.12 849 25.07 4.9 40.7 69 -0.4 31.3
13:20 1020 30.12 849 25.07 4.9 40.9 69 -0.3 31.5
13:25 1020 30.12 849 25.07 5.2 41.3 67 -0.5 31.1
13:30 1020 30.12 849 25.07 5.3 41.5 67 -0.4 31.3
13:35 1020 30.12 849 25.07 5.3 41.5 67 -0.3 31.5
13:40 1020 30.12 849 25.07 5.5 41.8 67 -0.2 31.7
13:45 1020 30.12 849 25.07 5.4 41.6 67 -0.3 31.5
13:50 1020 30.12 849 25.07 5.4 41.7 66 -0.4 31.2
13:55 1020 30.12 849 25.07 5.9 42.7 63 -0.7 30.8
14:00 1020 30.12 849 25.07 6.5 43.7 60 -0.7 30.8
14:05 1020 30.12 849 25.07 6.4 43.6 60 -0.7 30.7
14:10 1020 30.12 849 25.07 6.2 43.1 61 -0.7 30.7
14:15 1020 30.12 849 25.07 6.7 44.1 59 -0.8 30.6
14:20 1020 30.12 849 25.07 6.8 44.3 58 -0.8 30.6
14:25 1020 30.12 849 25.07 6.9 44.5 58 -0.7 30.7
14:30 1020 30.12 849 25.07 6.9 44.4 58 -0.7 30.7
14:35 1020 30.12 849 25.07 6.9 44.5 58 -0.8 30.6
14:40 1020 30.12 849 25.07 6.7 44.1 60 -0.6 30.9
14:45 1020 30.12 849 25.07 6.8 44.3 59 -0.6 30.9
14:50 1020 30.12 849 25.07 7 44.6 59 -0.4 31.2
14:55 1020 30.12 849 25.07 7 44.7 59 -0.5 31.2
15:00 1020 30.12 849 25.07 7 44.6 59 -0.5 31.1
15:05 1020 30.12 849 25.07 6.9 44.5 59 -0.4 31.2
15:10 1020 30.12 849 25.07 7.2 44.9 58 -0.5 31.2
15:15 1020 30.12 849 25.07 6.7 44.1 61 -0.3 31.5
15:20 1020 30.12 849 25.07 6.8 44.2 59 -0.7 30.8
15:25 1020 30.12 849 25.07 6.7 44.1 57 -1.1 30
15:30 1020 30.12 849 25.07 6.8 44.3 57 -1 30.2
15:35 1020 30.12 849 25.07 7.2 45 57 -0.7 30.8
15:40 1020 30.12 849 25.07 7.1 44.7 59 -0.4 31.2
15:45 1020 30.12 849 25.07 6.9 44.4 55 -1.5 29.3
15:50 1020 30.12 849 25.07 7.3 45.1 54 -1.4 29.4
15:55 1020 30.12 849 25.07 6.9 44.5 55 -1.4 29.6
16:00 1020 30.12 849 25.07 6.8 44.2 56 -1.3 29.7
16:05 1020 30.12 849 25.07 6.9 44.5 56 -1.3 29.7
16:10 1020 30.12 849 25.07 7.1 44.8 54 -1.5 29.3
16:15 1020 30.12 849 25.07 6.8 44.3 56 -1.3 29.7
16:20 1020 30.12 849 25.07 7.1 44.8 54 -1.6 29
16:25 1020 30.12 849 25.07 7 44.7 54 -1.6 29.1
16:30 1020 30.12 849 25.07 7.5 45.6 52 -1.7 28.9
16:35 1020 30.12 849 25.07 8 46.3 52 -1.2 29.8
16:40 1020 30.12 849 25.07 7.3 45.1 56 -0.9 30.3
16:45 1020 30.12 849 25.07 6.9 44.5 55 -1.4 29.5
16:50 1020 30.12 849 25.07 6.8 44.2 56 -1.3 29.7
16:55 1020 30.12 849 25.07 6.6 43.9 56 -1.5 29.2
17:00 1020 30.12 849 25.07 6.5 43.7 57 -1.4 29.5
17:05 1020 30.12 849 25.07 6.5 43.6 57 -1.4 29.5
17:10 1020 30.12 849 25.07 6.5 43.7 57 -1.3 29.6
17:15 1020 30.12 849 25.07 6.4 43.5 61 -0.6 31
17:20 1020 30.12 849 25.07 6.1 42.9 64 -0.3 31.5
17:25 1020 30.12 849 25.07 5.9 42.7 63 -0.5 31.1
17:30 1020 30.12 849 25.07 6 42.8 64 -0.4 31.3
17:35 1020 30.12 849 25.07 5.9 42.5 63 -0.6 31
17:40 1020 30.12 849 25.07 5.7 42.3 64 -0.6 30.9
17:45 1020 30.12 849 25.07 5.6 42.1 62 -1.1 30
17:50 1020 30.12 849 25.07 5.6 42 62 -1.2 29.8
17:55 1020 30.12 849 25.07 5.6 42 61 -1.4 29.6
18:00 1020 30.12 849 25.07 5.6 42 61 -1.3 29.7
18:05 1020 30.12 849 25.07 5.5 41.9 63 -1 30.1
18:10 1020 30.12 849 25.07 5.4 41.7 64 -0.9 30.4
18:15 1020 30.12 849 25.07 5.4 41.7 65 -0.7 30.8
18:20 1020 30.12 849 25.07 5.2 41.4 66 -0.6 30.9
18:25 1020 30.12 849 25.07 5.1 41.2 67 -0.4 31.2
18:30 1020 30.12 849 25.07 4.9 40.8 69 -0.3 31.4
18:35 1020 30.12 849 25.07 4.7 40.5 69 -0.5 31.2
18:40 1020 30.12 849 25.07 4.7 40.4 70 -0.2 31.6
18:45 1020 30.12 849 25.07 4.6 40.3 71 -0.2 31.7
18:50 1020 30.12 849 25.07 4.5 40.1 72 -0.1 31.7
18:55 1020 30.12 850 25.1 4.4 39.9 73 -0 31.9
19:00 1020 30.12 850 25.1 4.3 39.7 73 -0.1 31.7
19:05 1020 30.12 850 25.1 4.4 39.8 72 -0.2 31.7
19:10 1020 30.12 850 25.1 4.3 39.8 73 -0 32
19:15 1020 30.12 850 25.1 4.3 39.7 74 0 32.1
19:20 1020 30.12 850 25.1 4.1 39.4 75 0 32.1
19:25 1020 30.12 850 25.1 3.9 39 76 0.1 32.1
19:30 1020 30.12 850 25.1 3.8 38.8 77 0.1 32.2
19:35 1020 30.12 850 25.1 3.6 38.5 78 0.1 32.3
19:40 1020 30.12 850 25.1 3.5 38.3 79 0.1 32.2
19:45 1020 30.12 850 25.1 3.4 38.2 79 0.2 32.3
19:50 1020 30.12 850 25.1 3.4 38 79 0.1 32.1
19:55 1020 30.12 850 25.1 3.3 38 79 0 32
20:00 1020 30.12 850 25.1 3.6 38.5 77 -0.1 31.8
20:05 1020 30.12 850 25.1 3.7 38.7 76 -0.1 31.9
20:10 1020 30.12 850 25.1 3.8 38.8 78 0.2 32.3
20:15 1020 30.12 850 25.1 3.8 38.8 78 0.3 32.5
20:20 1020 30.12 850 25.1 3.8 38.8 79 0.4 32.8
20:25 1020 30.12 850 25.1 3.8 38.8 79 0.5 32.9
20:30 1020 30.12 850 25.1 3.8 38.8 79 0.5 32.9
20:35 1020 30.12 850 25.1 3.8 38.8 79 0.5 32.9
20:40 1020 30.12 850 25.1 3.8 38.8 79 0.5 33
20:45 1020 30.12 850 25.1 3.8 38.8 79 0.5 32.8
20:50 1020 30.12 850 25.1 3.8 38.9 78 0.4 32.7
20:55 1020 30.12 850 25.1 3.8 38.9 79 0.6 33
21:00 1020 30.12 850 25.1 3.8 38.8 79 0.6 33
21:05 1020 30.12 849 25.07 3.7 38.7 80 0.6 33
21:10 1020 30.12 850 25.1 3.7 38.7 79 0.4 32.8
21:15 1020 30.12 850 25.1 3.8 38.9 78 0.4 32.7
21:20 1020 30.12 850 25.1 3.9 39 78 0.4 32.8
21:25 1020 30.12 850 25.1 3.9 39 79 0.5 33
21:30 1020 30.12 850 25.1 3.8 38.9 79 0.5 32.9
21:35 1020 30.12 850 25.1 3.8 38.8 79 0.5 33
21:40 1020 30.12 850 25.1 3.8 38.8 80 0.6 33.1
21:45 1020 30.12 850 25.1 3.7 38.7 80 0.6 33.1
21:50 1020 30.12 850 25.1 3.7 38.7 80 0.6 33
21:55 1020 30.12 850 25.1 3.8 38.8 79 0.5 32.9
22:00 1020 30.12 850 25.1 3.8 38.9 79 0.5 32.9
22:05 1020 30.12 850 25.1 3.9 39 79 0.5 32.9
22:10 1020 30.12 850 25.1 3.9 38.9 79 0.6 33
22:15 1020 30.12 850 25.1 3.8 38.9 80 0.6 33.1
22:20 1020 30.12 850 25.1 3.7 38.7 80 0.7 33.2
22:25 1020 30.12 850 25.1 3.7 38.7 80 0.6 33.1
22:30 1020 30.12 850 25.1 3.7 38.6 80 0.6 33
22:35 1020 30.12 850 25.1 3.7 38.7 80 0.6 33.1
22:40 1020 30.12 850 25.1 3.7 38.6 80 0.6 33.1
22:45 1020 30.12 850 25.1 3.7 38.6 81 0.6 33.2
22:50 1020 30.12 850 25.1 3.7 38.6 81 0.7 33.2
22:55 1020 30.12 850 25.1 3.7 38.6 80 0.6 33.1
23:00 1020 30.12 850 25.1 3.7 38.6 81 0.7 33.2
23:05 1020 30.12 850 25.1 3.7 38.6 81 0.7 33.3
23:10 1020 30.12 850 25.1 3.6 38.5 81 0.7 33.2
23:15 1020 30.12 850 25.1 3.7 38.6 80 0.6 33.1
23:20 1020 30.12 850 25.1 3.7 38.6 81 0.7 33.2
23:25 1020 30.12 850 25.1 3.6 38.6 80 0.6 33
23:30 1020 30.12 850 25.1 3.7 38.6 80 0.6 33.1
23:35 1020 30.12 850 25.1 3.7 38.6 81 0.7 33.2
23:40 1020 30.12 850 25.1 3.6 38.5 81 0.7 33.3
23:45 1020 30.12 850 25.1 3.6 38.4 82 0.7 33.3
23:50 1020 30.12 850 25.1 3.6 38.4 81 0.6 33
23:55 1020 30.12 850 25.1 3.6 38.5 80 0.5 32.9
24:00 1020 30.12 850 25.1 3.7 38.6 80 0.5 32.9